createdAt,value
2019-01-19T00:02:15.075Z,8.67
2019-01-19T00:04:48.732Z,7.53
2019-01-19T00:07:52.182Z,8.00
2019-01-19T00:10:38.997Z,8.03
2019-01-19T00:13:27.120Z,7.93
2019-01-19T00:15:58.738Z,11.10
2019-01-19T00:18:33.366Z,6.70
2019-01-19T00:21:09.219Z,6.90
2019-01-19T00:23:41.043Z,9.77
2019-01-19T00:26:29.183Z,7.50
2019-01-19T00:29:01.267Z,8.10
2019-01-19T00:31:33.750Z,7.03
2019-01-19T00:34:12.775Z,8.20
2019-01-19T00:36:50.640Z,7.00
2019-01-19T00:39:39.347Z,7.10
2019-01-19T00:42:28.941Z,6.63
2019-01-19T00:45:20.145Z,9.77
2019-01-19T00:48:03.139Z,7.80
2019-01-19T00:50:38.967Z,4.93
2019-01-19T00:53:33.118Z,10.17
2019-01-19T00:56:16.726Z,7.67
2019-01-19T00:58:53.713Z,5.70
2019-01-19T01:01:40.307Z,6.00
2019-01-19T01:04:18.712Z,6.90
2019-01-19T01:07:12.640Z,6.67
2019-01-19T01:09:56.042Z,5.37
2019-01-19T01:12:49.990Z,5.13
2019-01-19T01:15:29.875Z,7.40
2019-01-19T01:18:17.990Z,5.57
2019-01-19T01:20:58.306Z,6.87
2019-01-19T01:23:46.426Z,6.03
2019-01-19T01:26:40.599Z,7.87
2019-01-19T01:29:26.132Z,6.83
2019-01-19T01:32:00.963Z,10.57
2019-01-19T01:34:55.092Z,5.60
2019-01-19T01:37:27.946Z,6.53
2019-01-19T01:40:21.825Z,8.73
2019-01-19T01:43:24.854Z,6.67
2019-01-19T01:46:11.378Z,6.07
2019-01-19T01:49:05.678Z,7.33
2019-01-19T01:51:52.151Z,7.30
2019-01-19T01:54:43.303Z,8.13
2019-01-19T01:57:15.670Z,5.53
2019-01-19T02:00:06.880Z,8.37
2019-01-19T02:02:41.483Z,7.53
2019-01-19T02:05:25.588Z,9.77
2019-01-19T02:08:12.393Z,8.50
2019-01-19T02:10:59.219Z,9.40
2019-01-19T02:13:59.163Z,10.40
2019-01-19T02:16:59.231Z,11.97
2019-01-19T02:19:56.167Z,9.30
2019-01-19T02:22:38.983Z,9.67
2019-01-19T02:25:22.298Z,9.77
2019-01-19T02:28:16.455Z,10.47
2019-01-19T02:31:07.029Z,11.37
2019-01-19T02:34:04.258Z,8.57
2019-01-19T02:36:52.355Z,9.77
2019-01-19T02:39:28.650Z,12.60
2019-01-19T02:42:17.579Z,11.20
2019-01-19T02:45:08.829Z,12.40
2019-01-19T02:47:50.215Z,12.03
2019-01-19T02:50:27.830Z,12.23
2019-01-19T02:53:11.146Z,10.03
2019-01-19T02:55:49.582Z,12.73
2019-01-19T02:58:33.763Z,8.27
2019-01-19T03:01:14.353Z,9.60
2019-01-19T03:03:50.151Z,11.83
2019-01-19T03:06:25.998Z,10.17
2019-01-19T03:09:29.228Z,11.37
2019-01-19T03:12:23.272Z,12.20
2019-01-19T03:14:59.791Z,8.33
2019-01-19T03:17:36.269Z,9.57
2019-01-19T03:20:24.063Z,10.40
2019-01-19T03:23:04.970Z,8.30
2019-01-19T03:25:50.918Z,8.90
2019-01-19T03:28:24.015Z,8.90
2019-01-19T03:31:17.885Z,8.93
2019-01-19T03:34:11.776Z,9.03
2019-01-19T03:36:59.137Z,9.90
2019-01-19T03:39:38.665Z,13.13
2019-01-19T03:42:22.287Z,10.17
2019-01-19T03:45:10.546Z,10.27
2019-01-19T03:48:04.788Z,14.63
2019-01-19T03:50:53.024Z,10.87
2019-01-19T03:53:40.072Z,10.50
2019-01-19T03:56:33.963Z,11.50
2019-01-19T03:59:27.942Z,11.60
2019-01-19T04:02:18.812Z,9.07
2019-01-19T04:05:15.829Z,9.70
2019-01-19T04:08:09.390Z,9.43
2019-01-19T04:10:56.318Z,8.93
2019-01-19T04:13:44.412Z,9.93
2019-01-19T04:16:38.531Z,9.87
2019-01-19T04:19:25.251Z,9.57
2019-01-19T04:22:02.859Z,10.17
2019-01-19T04:24:47.308Z,8.07
2019-01-19T04:27:16.286Z,8.07
2019-01-19T04:29:45.280Z,7.10
2019-01-19T04:32:14.351Z,7.63
2019-01-19T04:34:43.460Z,8.27
2019-01-19T04:37:12.489Z,8.90
2019-01-19T04:39:41.526Z,8.37
2019-01-19T04:42:10.858Z,8.87
2019-01-19T04:44:39.831Z,7.87
2019-01-19T04:47:08.821Z,6.50
2019-01-19T04:49:37.831Z,8.03
2019-01-19T04:52:06.900Z,9.77
2019-01-19T04:54:35.855Z,6.70
2019-01-19T04:57:04.839Z,8.77
2019-01-19T04:59:33.835Z,7.77
2019-01-19T05:02:02.918Z,6.57
2019-01-19T05:04:31.901Z,8.87
2019-01-19T05:07:01.031Z,8.07
2019-01-19T05:09:30.008Z,6.30
2019-01-19T05:11:59.019Z,6.57
2019-01-19T05:14:28.065Z,6.03
2019-01-19T05:16:57.153Z,6.83
2019-01-19T05:19:26.146Z,6.13
2019-01-19T05:21:55.187Z,6.03
2019-01-19T05:24:24.163Z,6.77
2019-01-19T05:26:53.235Z,6.90
2019-01-19T05:29:22.298Z,7.13
2019-01-19T05:31:51.317Z,6.70
2019-01-19T05:34:20.279Z,6.27
2019-01-19T05:36:49.266Z,5.93
2019-01-19T05:39:18.222Z,6.60
2019-01-19T05:41:47.197Z,5.47
2019-01-19T05:44:16.168Z,6.17
2019-01-19T05:46:45.188Z,10.07
2019-01-19T05:49:14.169Z,12.80
2019-01-19T05:51:43.134Z,10.47
2019-01-19T05:54:12.109Z,14.03
2019-01-19T05:56:41.082Z,8.87
2019-01-19T05:59:10.056Z,8.70
2019-01-19T06:01:39.034Z,9.70
2019-01-19T06:04:08.048Z,11.70
2019-01-19T06:06:37.043Z,10.03
2019-01-19T06:09:07.354Z,9.43
2019-01-19T06:11:36.331Z,9.90
2019-01-19T06:14:05.326Z,9.13
2019-01-19T06:16:34.314Z,10.53
2019-01-19T06:19:03.439Z,11.40
2019-01-19T06:21:35.620Z,14.23
2019-01-19T06:24:04.624Z,12.27
2019-01-19T06:26:33.634Z,15.70
2019-01-19T06:29:02.591Z,12.77
2019-01-19T06:31:31.583Z,8.60
2019-01-19T06:34:00.607Z,11.00
2019-01-19T06:36:29.606Z,12.53
2019-01-19T06:38:58.590Z,14.43
2019-01-19T06:41:27.583Z,12.80
2019-01-19T06:43:56.573Z,8.77
2019-01-19T06:46:25.615Z,8.90
2019-01-19T06:48:54.583Z,8.67
2019-01-19T06:51:23.652Z,10.40
2019-01-19T06:53:53.015Z,12.40
2019-01-19T06:56:22.090Z,9.37
2019-01-19T06:58:51.059Z,9.23
2019-01-19T07:01:20.051Z,6.70
2019-01-19T07:03:49.016Z,8.93
2019-01-19T07:06:18.016Z,7.27
2019-01-19T07:08:47.015Z,7.50
2019-01-19T07:11:15.983Z,11.90
2019-01-19T07:13:45.036Z,10.80
2019-01-19T07:16:14.051Z,10.27
2019-01-19T07:18:43.103Z,12.67
2019-01-19T07:21:12.087Z,10.07
2019-01-19T07:23:41.075Z,11.17
2019-01-19T07:26:10.221Z,9.17
2019-01-19T07:28:39.215Z,9.83
2019-01-19T07:31:08.204Z,9.40
2019-01-19T07:33:37.205Z,8.87
2019-01-19T07:36:06.229Z,11.47
2019-01-19T07:38:35.346Z,11.37
2019-01-19T07:41:04.341Z,10.63
2019-01-19T07:43:33.499Z,8.73
2019-01-19T07:46:03.370Z,11.33
2019-01-19T07:48:32.429Z,11.13
2019-01-19T07:51:01.391Z,9.57
2019-01-19T07:53:30.371Z,12.00
2019-01-19T07:55:59.350Z,11.90
2019-01-19T07:58:28.323Z,10.20
2019-01-19T08:00:57.387Z,12.53
2019-01-19T08:03:26.515Z,13.50
2019-01-19T08:05:55.474Z,15.07
2019-01-19T08:08:24.467Z,8.83
2019-01-19T08:10:53.429Z,9.43
2019-01-19T08:13:22.431Z,11.57
2019-01-19T08:15:51.406Z,11.70
2019-01-19T08:18:20.436Z,8.17
2019-01-19T08:20:49.409Z,11.13
2019-01-19T08:23:18.549Z,9.03
2019-01-19T08:25:47.528Z,13.40
2019-01-19T08:28:16.549Z,11.30
2019-01-19T08:30:45.545Z,13.37
2019-01-19T08:33:14.546Z,13.40
2019-01-19T08:35:44.955Z,10.27
2019-01-19T08:38:13.930Z,9.20
2019-01-19T08:40:42.927Z,14.67
2019-01-19T08:43:19.981Z,9.87
2019-01-19T08:45:48.958Z,10.93
2019-01-19T08:48:18.286Z,10.70
2019-01-19T08:50:47.258Z,10.07
2019-01-19T08:53:16.262Z,13.77
2019-01-19T08:55:45.241Z,11.70
2019-01-19T08:58:14.231Z,10.87
2019-01-19T09:00:43.204Z,11.00
2019-01-19T09:03:12.283Z,8.67
2019-01-19T09:05:41.358Z,7.03
2019-01-19T09:08:10.347Z,10.50
2019-01-19T09:10:39.340Z,10.57
2019-01-19T09:13:08.360Z,8.90
2019-01-19T09:15:37.331Z,10.20
2019-01-19T09:18:06.320Z,9.53
2019-01-19T09:20:35.317Z,13.83
2019-01-19T09:23:18.481Z,10.23
2019-01-19T09:25:47.479Z,10.67
2019-01-19T09:28:16.485Z,9.97
2019-01-19T09:30:45.647Z,10.00
2019-01-19T09:33:14.631Z,11.00
2019-01-19T09:35:43.670Z,14.73
2019-01-19T09:38:12.673Z,12.23
2019-01-19T09:40:41.645Z,7.57
2019-01-19T09:43:10.652Z,8.50
2019-01-19T09:45:39.660Z,8.80
2019-01-19T09:48:08.707Z,6.97
2019-01-19T09:50:39.160Z,8.33
2019-01-19T09:53:08.274Z,9.40
2019-01-19T09:55:37.322Z,9.43
2019-01-19T09:58:06.311Z,7.00
2019-01-19T10:00:36.677Z,9.73
2019-01-19T10:03:05.973Z,9.30
2019-01-19T10:05:34.975Z,8.07
2019-01-19T10:08:04.147Z,9.43
2019-01-19T10:10:33.138Z,6.67
2019-01-19T10:13:02.113Z,6.63
2019-01-19T10:15:31.113Z,6.60
2019-01-19T10:18:00.175Z,8.37
2019-01-19T10:20:29.275Z,7.10
2019-01-19T10:22:58.348Z,7.23
2019-01-19T10:25:28.254Z,6.60
2019-01-19T10:27:57.347Z,7.90
2019-01-19T10:30:26.514Z,7.87
2019-01-19T10:32:55.577Z,7.93
2019-01-19T10:35:24.686Z,7.83
2019-01-19T10:37:56.678Z,6.70
2019-01-19T10:40:24.432Z,9.87
2019-01-19T10:42:53.422Z,5.73
2019-01-19T10:45:22.998Z,6.97
2019-01-19T10:47:51.986Z,7.20
2019-01-19T10:50:21.063Z,12.93
2019-01-19T10:52:50.119Z,10.23
2019-01-19T10:55:19.435Z,6.80
2019-01-19T10:57:48.506Z,7.43
2019-01-19T11:00:18.659Z,6.67
2019-01-19T11:02:47.651Z,5.80
2019-01-19T11:05:16.880Z,6.40
2019-01-19T11:07:48.030Z,9.47
2019-01-19T11:10:21.024Z,8.60
2019-01-19T11:12:50.007Z,7.43
2019-01-19T11:15:19.045Z,5.70
2019-01-19T11:17:48.071Z,7.37
2019-01-19T11:20:18.412Z,9.33
2019-01-19T11:23:06.595Z,16.83
2019-01-19T11:25:35.623Z,5.87
2019-01-19T11:28:04.758Z,7.23
2019-01-19T11:30:33.760Z,6.90
2019-01-19T11:33:02.787Z,7.27
2019-01-19T11:35:31.842Z,6.83
2019-01-19T11:38:00.919Z,7.13
2019-01-19T11:40:36.563Z,7.93
2019-01-19T11:43:06.232Z,8.53
2019-01-19T11:45:35.342Z,6.10
2019-01-19T11:48:04.526Z,6.33
2019-01-19T11:50:33.503Z,12.10
2019-01-19T11:53:02.558Z,12.23
2019-01-19T11:55:31.669Z,13.17
2019-01-19T11:58:01.638Z,8.50
2019-01-19T12:00:31.284Z,8.20
2019-01-19T12:03:00.255Z,9.78
2019-01-19T12:05:29.303Z,6.10
2019-01-19T12:07:58.299Z,5.87
2019-01-19T12:10:30.052Z,6.03
2019-01-19T12:12:59.376Z,8.10
2019-01-19T12:15:28.496Z,12.40
2019-01-19T12:17:57.879Z,8.60
2019-01-19T12:20:31.046Z,8.17
2019-01-19T12:23:00.042Z,5.80
2019-01-19T12:25:29.119Z,9.80
2019-01-19T12:27:58.199Z,5.93
2019-01-19T12:30:28.227Z,9.40
2019-01-19T12:32:57.202Z,44.67
2019-01-19T12:35:26.198Z,72.70
2019-01-19T12:37:55.371Z,24.17
2019-01-19T12:40:24.687Z,8.93
2019-01-19T12:42:55.022Z,6.40
2019-01-19T12:45:25.516Z,7.67
2019-01-19T12:47:54.527Z,7.13
2019-01-19T12:50:24.119Z,7.87
2019-01-19T12:52:53.211Z,9.83
2019-01-19T12:55:22.280Z,9.07
2019-01-19T12:57:51.343Z,8.77
2019-01-19T13:00:21.404Z,9.37
2019-01-19T13:02:50.512Z,10.30
2019-01-19T13:05:21.332Z,8.27
2019-01-19T13:07:50.394Z,6.07
2019-01-19T13:10:24.030Z,8.60
2019-01-19T13:12:55.281Z,8.67
2019-01-19T13:15:35.940Z,9.77
2019-01-19T13:18:18.147Z,9.70
2019-01-19T13:21:04.963Z,8.10
2019-01-19T13:23:58.818Z,7.10
2019-01-19T13:26:45.523Z,7.43
2019-01-19T13:29:32.107Z,7.43
2019-01-19T13:32:29.374Z,12.40
2019-01-19T13:35:26.622Z,8.87
2019-01-19T13:38:29.679Z,9.47
2019-01-19T13:41:15.989Z,9.00
2019-01-19T13:44:22.082Z,8.50
2019-01-19T13:47:12.882Z,7.70
2019-01-19T13:50:03.959Z,9.53
2019-01-19T13:52:55.774Z,8.53
2019-01-19T13:55:43.808Z,7.97
2019-01-19T13:58:18.565Z,6.83
2019-01-19T14:01:09.692Z,8.23
2019-01-19T14:03:47.540Z,9.60
2019-01-19T14:06:23.302Z,14.70
2019-01-19T14:09:08.483Z,8.43
2019-01-19T14:11:55.343Z,7.13
2019-01-19T14:14:37.853Z,6.90
2019-01-19T14:17:29.093Z,8.80
2019-01-19T14:20:04.929Z,8.67
2019-01-19T14:22:59.277Z,7.90
2019-01-19T14:25:38.147Z,8.63
2019-01-19T14:28:24.921Z,10.07
2019-01-19T14:31:27.900Z,9.47
2019-01-19T14:34:00.887Z,8.60
2019-01-19T14:36:53.155Z,8.40
2019-01-19T14:39:53.473Z,11.53
2019-01-19T14:42:47.539Z,9.93
2019-01-19T14:45:35.639Z,24.73
2019-01-19T14:48:29.659Z,22.50
2019-01-19T14:51:16.455Z,12.67
2019-01-19T14:54:16.596Z,10.67
2019-01-19T14:56:59.293Z,13.17
2019-01-19T14:59:30.963Z,13.60
2019-01-19T15:02:22.524Z,15.63
2019-01-19T15:04:53.951Z,24.10
2019-01-19T15:07:30.284Z,102.70
2019-01-19T15:10:08.934Z,35.70
2019-01-19T15:12:41.746Z,19.90
2019-01-19T15:15:29.889Z,15.77
2019-01-19T15:18:30.339Z,14.10
2019-01-19T15:21:27.243Z,17.03
2019-01-19T15:24:15.434Z,17.40
2019-01-19T15:27:02.003Z,16.60
2019-01-19T15:29:48.865Z,14.57
2019-01-19T15:32:43.500Z,12.30
2019-01-19T15:35:34.471Z,16.27
2019-01-19T15:38:24.823Z,14.43
2019-01-19T15:41:19.212Z,12.80
2019-01-19T15:44:07.312Z,11.63
2019-01-19T15:47:01.589Z,16.70
2019-01-19T15:49:52.875Z,12.70
2019-01-19T15:52:28.386Z,15.07
2019-01-19T15:55:19.603Z,12.40
2019-01-19T15:58:03.320Z,12.20
2019-01-19T16:00:47.613Z,12.23
2019-01-19T16:03:38.565Z,13.83
2019-01-19T16:06:29.631Z,12.37
2019-01-19T16:09:18.316Z,13.33
2019-01-19T16:12:15.365Z,13.67
2019-01-19T16:15:15.461Z,16.03
2019-01-19T16:17:51.488Z,12.37
2019-01-19T16:20:39.611Z,14.67
2019-01-19T16:23:26.498Z,13.63
2019-01-19T16:26:17.535Z,14.77
2019-01-19T16:28:53.151Z,13.90
2019-01-19T16:31:50.312Z,14.10
2019-01-19T16:34:36.968Z,13.13
2019-01-19T16:37:21.204Z,13.87
2019-01-19T16:40:08.123Z,14.90
2019-01-19T16:42:57.704Z,15.77
2019-01-19T16:45:44.201Z,33.47
2019-01-19T16:48:17.187Z,22.13
2019-01-19T16:50:55.865Z,19.50
2019-01-19T16:53:56.515Z,20.07
2019-01-19T16:56:41.875Z,18.87
2019-01-19T16:59:30.122Z,18.57
2019-01-19T17:02:11.216Z,15.17
2019-01-19T17:04:43.804Z,18.23
2019-01-19T17:07:30.402Z,25.60
2019-01-19T17:10:21.678Z,17.83
2019-01-19T17:13:14.303Z,17.50
2019-01-19T17:15:57.816Z,17.43
2019-01-19T17:18:48.959Z,15.97
2019-01-19T17:21:39.950Z,23.17
2019-01-19T17:24:26.606Z,28.73
2019-01-19T17:27:14.369Z,22.93
2019-01-19T17:30:14.456Z,19.27
2019-01-19T17:33:20.610Z,18.37
2019-01-19T17:36:08.819Z,17.30
2019-01-19T17:38:59.895Z,16.47
2019-01-19T17:42:02.975Z,19.17
2019-01-19T17:44:51.207Z,18.33
2019-01-19T17:47:24.009Z,14.63
2019-01-19T17:50:05.537Z,18.07
2019-01-19T17:52:59.430Z,16.50
2019-01-19T17:55:41.391Z,15.77
2019-01-19T17:58:27.971Z,17.97
2019-01-19T18:01:14.994Z,16.90
2019-01-19T18:03:48.750Z,18.93
2019-01-19T18:06:33.471Z,16.17
2019-01-19T18:09:22.902Z,16.27
2019-01-19T18:12:01.852Z,16.23
2019-01-19T18:15:02.390Z,16.07
2019-01-19T18:17:50.594Z,16.37
2019-01-19T18:20:37.386Z,17.80
2019-01-19T18:23:20.399Z,19.17
2019-01-19T18:26:10.943Z,16.53
2019-01-19T18:29:00.115Z,15.97
2019-01-19T18:31:46.815Z,16.60
2019-01-19T18:34:40.936Z,17.03
2019-01-19T18:37:29.048Z,20.33
2019-01-19T18:40:23.015Z,18.97
2019-01-19T18:42:58.405Z,15.80
2019-01-19T18:45:46.624Z,18.73
2019-01-19T18:48:30.906Z,17.13
2019-01-19T18:51:19.124Z,16.20
2019-01-19T18:54:13.310Z,16.97
2019-01-19T18:57:19.535Z,18.47
2019-01-19T19:00:16.970Z,21.77
2019-01-19T19:02:53.810Z,16.03
2019-01-19T19:05:40.406Z,19.73
2019-01-19T19:08:31.610Z,17.13
2019-01-19T19:11:19.855Z,42.70
2019-01-19T19:13:58.118Z,38.00
2019-01-19T19:16:49.399Z,31.93
2019-01-19T19:19:29.510Z,34.77
2019-01-19T19:22:17.698Z,25.93
2019-01-19T19:25:04.224Z,26.03
2019-01-19T19:27:58.614Z,68.13
2019-01-19T19:30:49.804Z,23.07
2019-01-19T19:33:42.427Z,22.73
2019-01-19T19:36:29.287Z,17.77
2019-01-19T19:39:17.676Z,18.20
2019-01-19T19:42:05.899Z,20.37
2019-01-19T19:45:06.309Z,20.10
2019-01-19T19:47:51.293Z,23.03
2019-01-19T19:50:57.572Z,20.97
2019-01-19T19:53:26.662Z,17.80
2019-01-19T19:55:54.958Z,21.00
2019-01-19T19:58:24.039Z,17.57
2019-01-19T20:00:53.123Z,21.30
2019-01-19T20:03:22.280Z,18.87
2019-01-19T20:05:51.301Z,20.00
2019-01-19T20:08:20.445Z,20.27
2019-01-19T20:10:49.577Z,19.27
2019-01-19T20:13:18.618Z,19.37
2019-01-19T20:15:47.667Z,19.40
2019-01-19T20:18:16.884Z,22.67
2019-01-19T20:20:46.083Z,22.63
2019-01-19T20:23:15.177Z,19.37
2019-01-19T20:25:44.243Z,21.87
2019-01-19T20:28:13.249Z,22.90
2019-01-19T20:30:42.339Z,22.30
2019-01-19T20:33:11.565Z,21.73
2019-01-19T20:35:40.725Z,25.00
2019-01-19T20:38:09.737Z,25.87
2019-01-19T20:40:38.910Z,22.87
2019-01-19T20:43:08.120Z,22.03
2019-01-19T20:45:37.117Z,18.67
2019-01-19T20:48:11.340Z,19.70
2019-01-19T20:50:40.931Z,20.60
2019-01-19T20:53:10.054Z,22.03
2019-01-19T20:55:39.140Z,20.60
2019-01-19T20:58:08.227Z,22.17
2019-01-19T21:00:37.338Z,21.33
2019-01-19T21:03:06.633Z,20.97
2019-01-19T21:05:38.172Z,19.90
2019-01-19T21:08:07.216Z,24.03
2019-01-19T21:10:36.374Z,21.10
2019-01-19T21:13:05.491Z,25.70
2019-01-19T21:15:34.648Z,20.47
2019-01-19T21:18:03.879Z,21.60
2019-01-19T21:20:34.455Z,23.87
2019-01-19T21:23:03.707Z,26.50
2019-01-19T21:25:32.729Z,25.10
2019-01-19T21:28:01.791Z,24.03
2019-01-19T21:30:30.955Z,22.13
2019-01-19T21:33:00.099Z,22.83
2019-01-19T21:35:29.182Z,21.23
2019-01-19T21:37:58.274Z,20.97
2019-01-19T21:40:27.411Z,19.93
2019-01-19T21:42:56.527Z,23.23
2019-01-19T21:45:25.638Z,21.77
2019-01-19T21:47:56.144Z,18.93
2019-01-19T21:50:25.168Z,24.07
2019-01-19T21:52:54.158Z,21.90
2019-01-19T21:55:24.168Z,19.10
2019-01-19T21:57:53.522Z,24.93
2019-01-19T22:00:22.664Z,22.90
2019-01-19T22:02:51.692Z,23.17
2019-01-19T22:05:20.755Z,28.20
2019-01-19T22:07:49.759Z,22.47
2019-01-19T22:10:18.947Z,22.27
2019-01-19T22:12:48.055Z,25.90
2019-01-19T22:15:17.406Z,25.23
2019-01-19T22:17:46.436Z,21.43
2019-01-19T22:20:15.694Z,26.50
2019-01-19T22:22:44.735Z,22.13
2019-01-19T22:25:14.003Z,21.17
2019-01-19T22:27:46.555Z,21.87
2019-01-19T22:30:18.699Z,20.90
2019-01-19T22:32:49.168Z,22.50
2019-01-19T22:35:22.716Z,24.77
2019-01-19T22:37:51.963Z,21.63
2019-01-19T22:40:21.255Z,23.23
2019-01-19T22:42:50.590Z,23.03
2019-01-19T22:45:19.733Z,23.87
2019-01-19T22:47:48.811Z,23.10
2019-01-19T22:50:17.947Z,19.43
2019-01-19T22:52:47.183Z,21.50
2019-01-19T22:55:16.491Z,22.10
2019-01-19T22:57:45.564Z,19.87
2019-01-19T23:00:56.926Z,21.30
2019-01-19T23:03:25.989Z,24.20
2019-01-19T23:05:55.136Z,24.37
2019-01-19T23:08:24.196Z,25.03
2019-01-19T23:10:53.195Z,24.17
2019-01-19T23:13:22.427Z,24.60
2019-01-19T23:15:51.619Z,23.73
2019-01-19T23:18:20.702Z,22.70
2019-01-19T23:20:49.941Z,26.07
2019-01-19T23:23:18.962Z,24.03
2019-01-19T23:25:48.588Z,22.00
2019-01-19T23:28:18.070Z,27.60
2019-01-19T23:30:48.249Z,29.07
2019-01-19T23:33:19.527Z,28.30
2019-01-19T23:35:49.277Z,27.93
2019-01-19T23:38:18.771Z,24.77
2019-01-19T23:40:49.516Z,25.83
2019-01-19T23:43:19.900Z,24.63
2019-01-19T23:45:50.666Z,26.83
2019-01-19T23:48:20.022Z,23.97
2019-01-19T23:50:49.357Z,27.57
2019-01-19T23:53:18.526Z,24.63
2019-01-19T23:55:47.618Z,27.33
2019-01-19T23:58:16.684Z,25.57
